createdAt,value
2023-04-06T00:02:32.002Z,18.58
2023-04-06T00:05:18.508Z,19.73
2023-04-06T00:08:06.853Z,16.88
2023-04-06T00:10:52.914Z,19.92
2023-04-06T00:13:39.229Z,22.27
2023-04-06T00:16:26.557Z,25.50
2023-04-06T00:19:14.350Z,22.85
2023-04-06T00:22:00.816Z,19.48
2023-04-06T00:24:48.409Z,20.95
2023-04-06T00:27:34.883Z,22.10
2023-04-06T00:30:21.561Z,22.65
2023-04-06T00:33:08.030Z,20.48
2023-04-06T00:35:54.322Z,17.77
2023-04-06T00:38:41.355Z,21.40
2023-04-06T00:41:28.990Z,20.55
2023-04-06T00:44:15.712Z,21.10
2023-04-06T00:47:02.784Z,19.17
2023-04-06T00:49:49.080Z,20.10
2023-04-06T00:52:36.541Z,18.60
2023-04-06T00:55:23.093Z,23.10
2023-04-06T00:58:10.941Z,18.90
2023-04-06T01:01:07.267Z,20.77
2023-04-06T01:03:55.261Z,21.25
2023-04-06T01:06:42.169Z,19.77
2023-04-06T01:09:29.494Z,17.13
2023-04-06T01:12:16.223Z,18.30
2023-04-06T01:15:03.785Z,15.55
2023-04-06T01:20:39.714Z,15.30
2023-04-06T01:23:28.662Z,16.77
2023-04-06T01:26:15.486Z,17.00
2023-04-06T01:29:02.825Z,19.40
2023-04-06T01:31:49.811Z,22.67
2023-04-06T01:34:36.499Z,16.27
2023-04-06T01:37:24.890Z,21.73
2023-04-06T01:40:16.252Z,13.13
2023-04-06T01:43:08.989Z,14.23
2023-04-06T01:46:05.350Z,18.70
2023-04-06T01:48:57.294Z,13.35
2023-04-06T01:51:57.708Z,16.30
2023-04-06T01:54:44.309Z,19.98
2023-04-06T01:58:01.048Z,15.35
2023-04-06T02:00:54.165Z,15.90
2023-04-06T02:03:40.766Z,14.73
2023-04-06T02:06:31.155Z,17.80
2023-04-06T02:09:18.207Z,18.77
2023-04-06T02:12:04.962Z,15.57
2023-04-06T02:14:54.206Z,17.27
2023-04-06T02:17:40.597Z,13.43
2023-04-06T02:20:27.108Z,16.60
2023-04-06T02:23:13.758Z,13.07
2023-04-06T02:26:00.310Z,14.68
2023-04-06T02:28:46.868Z,15.43
2023-04-06T02:31:34.670Z,16.58
2023-04-06T02:34:22.261Z,13.50
2023-04-06T02:37:11.261Z,16.95
2023-04-06T02:39:57.886Z,15.75
2023-04-06T02:42:44.643Z,16.80
2023-04-06T02:45:31.829Z,15.30
2023-04-06T02:48:21.131Z,16.92
2023-04-06T02:51:07.363Z,17.45
2023-04-06T02:53:54.375Z,14.93
2023-04-06T02:56:40.986Z,18.20
2023-04-06T02:59:27.609Z,14.48
2023-04-06T03:02:26.012Z,14.75
2023-04-06T03:05:17.889Z,15.63
2023-04-06T03:08:06.478Z,16.05
2023-04-06T03:11:00.514Z,16.85
2023-04-06T03:13:55.231Z,18.52
2023-04-06T03:16:41.585Z,17.17
2023-04-06T03:19:28.640Z,15.27
2023-04-06T03:22:20.133Z,17.48
2023-04-06T03:25:08.492Z,19.95
2023-04-06T03:27:54.964Z,20.73
2023-04-06T03:30:41.575Z,18.27
2023-04-06T03:33:28.944Z,19.08
2023-04-06T03:36:15.565Z,22.23
2023-04-06T03:39:05.130Z,20.98
2023-04-06T03:41:54.788Z,18.35
2023-04-06T03:47:42.409Z,18.70
2023-04-06T03:50:29.060Z,19.27
2023-04-06T03:53:15.488Z,22.90
2023-04-06T03:56:04.847Z,26.70
2023-04-06T03:58:51.639Z,18.92
2023-04-06T04:01:41.201Z,24.08
2023-04-06T04:04:27.513Z,21.25
2023-04-06T04:07:14.239Z,19.63
2023-04-06T04:10:00.749Z,21.73
2023-04-06T04:12:49.292Z,23.85
2023-04-06T04:15:35.993Z,26.10
2023-04-06T04:18:22.416Z,22.85
2023-04-06T04:21:09.322Z,22.02
2023-04-06T04:23:55.994Z,23.20
2023-04-06T04:26:42.462Z,21.38
2023-04-06T04:29:30.391Z,20.48
2023-04-06T04:32:21.613Z,24.30
2023-04-06T04:35:11.079Z,23.17
2023-04-06T04:38:01.169Z,24.92
2023-04-06T04:40:47.668Z,23.00
2023-04-06T04:43:34.341Z,21.00
2023-04-06T04:46:23.870Z,21.48
2023-04-06T04:49:11.988Z,24.00
2023-04-06T04:52:00.560Z,20.98
2023-04-06T04:54:58.336Z,21.13
2023-04-06T04:57:48.338Z,24.55
2023-04-06T05:00:36.093Z,25.60
2023-04-06T05:03:26.639Z,22.55
2023-04-06T05:06:21.229Z,25.15
2023-04-06T05:09:08.488Z,27.83
2023-04-06T05:11:55.791Z,27.10
2023-04-06T05:14:42.725Z,22.60
2023-04-06T05:17:34.207Z,29.55
2023-04-06T05:20:22.282Z,29.73
2023-04-06T05:23:11.175Z,25.13
2023-04-06T05:25:58.282Z,26.60
2023-04-06T05:28:45.380Z,25.35
2023-04-06T05:31:32.196Z,26.88
2023-04-06T05:34:18.877Z,23.98
2023-04-06T05:37:07.551Z,25.48
2023-04-06T05:39:53.684Z,24.80
2023-04-06T05:42:46.389Z,25.98
2023-04-06T05:45:33.098Z,26.67
2023-04-06T05:48:26.029Z,26.92
2023-04-06T05:51:13.428Z,25.70
2023-04-06T05:54:06.894Z,26.88
2023-04-06T05:56:54.039Z,26.40
2023-04-06T05:59:40.734Z,25.50
2023-04-06T06:02:28.087Z,24.17
2023-04-06T06:05:18.941Z,26.65
2023-04-06T06:08:09.678Z,27.92
2023-04-06T06:10:58.210Z,24.13
2023-04-06T06:13:45.236Z,32.08
2023-04-06T06:16:32.779Z,29.63
2023-04-06T06:19:20.218Z,29.30
2023-04-06T06:22:07.984Z,26.98
2023-04-06T06:25:00.479Z,30.38
2023-04-06T06:27:50.227Z,25.48
2023-04-06T06:30:40.739Z,26.60
2023-04-06T06:33:27.756Z,27.45
2023-04-06T06:36:16.754Z,32.05
2023-04-06T06:39:05.533Z,28.48
2023-04-06T06:41:54.179Z,23.30
2023-04-06T06:44:48.156Z,25.70
2023-04-06T06:47:34.222Z,27.67
2023-04-06T06:50:20.892Z,27.92
2023-04-06T06:53:08.858Z,26.08
2023-04-06T06:55:55.997Z,31.05
2023-04-06T06:58:44.266Z,23.27
2023-04-06T07:01:35.148Z,23.95
2023-04-06T07:04:22.161Z,26.38
2023-04-06T07:07:09.938Z,23.50
2023-04-06T07:09:56.686Z,29.35
2023-04-06T07:12:43.293Z,27.02
2023-04-06T07:15:31.026Z,25.60
2023-04-06T07:18:20.724Z,28.27
2023-04-06T07:21:07.577Z,31.15
2023-04-06T07:23:55.286Z,27.35
2023-04-06T07:26:41.697Z,24.80
2023-04-06T07:29:29.049Z,25.20
2023-04-06T07:32:15.873Z,26.95
2023-04-06T07:35:04.453Z,25.15
2023-04-06T07:37:51.378Z,25.65
2023-04-06T07:41:07.343Z,27.73
2023-04-06T07:43:54.981Z,29.55
2023-04-06T07:46:41.707Z,25.98
2023-04-06T07:49:28.861Z,27.23
2023-04-06T07:52:17.393Z,27.13
2023-04-06T07:55:05.492Z,26.02
2023-04-06T07:57:51.971Z,28.20
2023-04-06T08:00:38.836Z,30.95
2023-04-06T08:03:55.606Z,28.08
2023-04-06T08:06:42.429Z,23.85
2023-04-06T08:09:31.107Z,26.98
2023-04-06T08:12:17.563Z,24.75
2023-04-06T08:15:04.908Z,28.05
2023-04-06T08:17:51.171Z,29.52
2023-04-06T08:20:38.381Z,27.23
2023-04-06T08:23:24.703Z,32.03
2023-04-06T08:26:12.901Z,28.55
2023-04-06T08:28:59.176Z,26.67
2023-04-06T08:31:45.876Z,28.48
2023-04-06T08:34:34.058Z,30.50
2023-04-06T08:37:20.473Z,29.52
2023-04-06T08:40:08.106Z,29.02
2023-04-06T08:42:57.902Z,29.70
2023-04-06T08:45:45.300Z,26.75
2023-04-06T08:48:32.150Z,30.30
2023-04-06T08:51:19.442Z,28.33
2023-04-06T08:54:07.468Z,27.50
2023-04-06T08:56:57.487Z,32.30
2023-04-06T08:59:46.295Z,34.55
2023-04-06T09:02:33.950Z,31.13
2023-04-06T09:05:21.181Z,28.48
2023-04-06T09:08:08.394Z,33.22
2023-04-06T09:10:55.176Z,31.20
2023-04-06T09:13:49.272Z,32.10
2023-04-06T09:16:42.915Z,31.60
2023-04-06T09:19:29.412Z,31.65
2023-04-06T09:22:15.824Z,33.90
2023-04-06T09:25:02.263Z,37.28
2023-04-06T09:27:50.381Z,31.27
2023-04-06T09:30:37.161Z,33.28
2023-04-06T09:34:10.522Z,35.15
2023-04-06T09:37:01.111Z,37.90
2023-04-06T09:46:19.901Z,36.25
2023-04-06T09:49:07.536Z,32.67
2023-04-06T09:56:19.696Z,29.75
2023-04-06T09:59:11.769Z,27.80
2023-04-06T10:02:02.490Z,21.25
2023-04-06T10:04:55.364Z,24.25
2023-04-06T10:07:58.983Z,23.10
2023-04-06T10:10:49.375Z,22.08
2023-04-06T10:13:36.105Z,21.17
2023-04-06T10:16:23.838Z,20.50
2023-04-06T10:19:18.322Z,16.40
2023-04-06T10:22:07.350Z,17.67
2023-04-06T10:24:56.662Z,14.32
2023-04-06T10:27:43.189Z,17.08
2023-04-06T10:30:30.844Z,13.18
2023-04-06T10:33:17.859Z,14.07
2023-04-06T10:36:12.391Z,14.23
2023-04-06T10:39:01.494Z,11.55
2023-04-06T10:41:52.491Z,12.10
2023-04-06T10:44:45.493Z,13.38
2023-04-06T10:47:43.088Z,12.57
2023-04-06T10:50:56.515Z,11.70
2023-04-06T10:53:44.714Z,14.05
2023-04-06T10:56:34.219Z,11.93
2023-04-06T10:59:23.752Z,11.73
2023-04-06T11:02:10.467Z,13.23
2023-04-06T11:04:58.237Z,12.07
2023-04-06T11:07:46.707Z,13.27
2023-04-06T11:10:33.167Z,13.73
2023-04-06T11:13:19.814Z,14.23
2023-04-06T11:16:08.391Z,16.58
2023-04-06T11:18:56.512Z,16.27
2023-04-06T11:21:46.351Z,13.60
2023-04-06T11:24:32.572Z,14.02
2023-04-06T11:27:20.159Z,14.07
2023-04-06T11:30:10.503Z,12.77
2023-04-06T11:33:03.596Z,13.95
2023-04-06T11:35:50.504Z,13.00
2023-04-06T11:38:41.202Z,13.38
2023-04-06T11:41:32.380Z,13.38
2023-04-06T11:44:30.718Z,14.55
2023-04-06T11:47:17.940Z,11.18
2023-04-06T11:50:13.328Z,14.43
2023-04-06T11:53:03.439Z,13.45
2023-04-06T11:55:49.572Z,14.33
2023-04-06T11:58:38.121Z,14.23
2023-04-06T12:01:28.616Z,15.45
2023-04-06T12:07:04.426Z,14.45
2023-04-06T12:09:51.209Z,18.40
2023-04-06T12:12:37.385Z,16.60
2023-04-06T12:15:23.753Z,15.82
2023-04-06T12:18:10.259Z,17.80
2023-04-06T12:20:57.907Z,16.40
2023-04-06T12:23:45.762Z,14.57
2023-04-06T12:26:33.843Z,18.42
2023-04-06T12:29:20.362Z,18.60
2023-04-06T12:32:07.607Z,17.58
2023-04-06T12:34:54.537Z,16.05
2023-04-06T12:37:41.242Z,17.88
2023-04-06T12:40:29.105Z,15.50
2023-04-06T12:43:15.701Z,19.70
2023-04-06T12:46:02.541Z,15.52
2023-04-06T12:48:48.957Z,20.90
2023-04-06T12:51:35.718Z,20.00
2023-04-06T12:54:22.939Z,20.63
2023-04-06T12:57:11.022Z,19.63
2023-04-06T12:59:57.382Z,20.75
2023-04-06T13:02:47.531Z,18.48
2023-04-06T13:05:34.106Z,18.67
2023-04-06T13:08:21.611Z,19.63
2023-04-06T13:11:10.247Z,17.02
2023-04-06T13:13:59.308Z,19.30
2023-04-06T13:16:46.005Z,17.42
2023-04-06T13:19:32.982Z,18.67
2023-04-06T13:22:19.653Z,19.70
2023-04-06T13:25:08.278Z,18.33
2023-04-06T13:27:56.239Z,19.55
2023-04-06T13:30:43.920Z,26.15
2023-04-06T13:33:30.949Z,21.40
2023-04-06T13:36:18.317Z,21.52
2023-04-06T13:39:05.465Z,18.23
2023-04-06T13:41:57.614Z,21.48
2023-04-06T13:44:44.609Z,21.42
2023-04-06T13:47:33.814Z,19.73
2023-04-06T13:50:21.216Z,22.50
2023-04-06T13:53:07.674Z,22.63
2023-04-06T13:55:55.430Z,21.27
2023-04-06T13:58:42.152Z,23.73
2023-04-06T14:01:29.844Z,24.45
2023-04-06T14:04:17.762Z,21.15
2023-04-06T14:07:08.854Z,23.42
2023-04-06T14:09:55.824Z,20.13
2023-04-06T14:12:49.522Z,20.83
2023-04-06T14:15:36.393Z,23.20
2023-04-06T14:18:23.717Z,21.95
2023-04-06T14:21:11.320Z,20.88
2023-04-06T14:23:59.576Z,20.95
2023-04-06T14:26:46.943Z,20.17
2023-04-06T14:29:34.379Z,18.50
2023-04-06T14:32:23.177Z,19.92
2023-04-06T14:35:11.824Z,22.17
2023-04-06T14:38:03.480Z,21.13
2023-04-06T14:40:51.088Z,22.00
2023-04-06T14:43:39.893Z,21.67
2023-04-06T14:46:26.587Z,25.77
2023-04-06T14:49:15.609Z,22.20
2023-04-06T14:52:05.285Z,21.15
2023-04-06T14:54:53.510Z,24.30
2023-04-06T14:57:40.266Z,21.27
2023-04-06T15:00:28.005Z,20.80
2023-04-06T15:03:17.058Z,19.75
2023-04-06T15:06:03.988Z,20.23
2023-04-06T15:08:51.181Z,18.80
2023-04-06T15:11:43.968Z,23.38
2023-04-06T15:14:31.530Z,23.58
2023-04-06T15:20:52.778Z,19.02
2023-04-06T15:23:39.870Z,18.80
2023-04-06T15:26:27.298Z,20.88
2023-04-06T15:29:15.341Z,21.73
2023-04-06T15:32:02.765Z,21.38
2023-04-06T15:34:49.529Z,21.48
2023-04-06T15:37:37.542Z,24.25
2023-04-06T15:40:26.115Z,20.13
2023-04-06T15:43:12.564Z,22.20
2023-04-06T15:46:04.672Z,21.65
2023-04-06T15:48:52.479Z,22.77
2023-04-06T15:51:40.305Z,22.13
2023-04-06T15:54:26.591Z,20.23
2023-04-06T15:57:13.421Z,24.65
2023-04-06T16:00:00.108Z,25.17
2023-04-06T16:02:51.191Z,21.65
2023-04-06T16:05:48.881Z,23.45
2023-04-06T16:08:41.387Z,23.70
2023-04-06T16:11:27.887Z,26.13
2023-04-06T16:14:15.684Z,22.92
2023-04-06T16:17:02.422Z,21.70
2023-04-06T16:19:51.381Z,23.77
2023-04-06T16:22:38.151Z,24.52
2023-04-06T16:25:25.865Z,24.05
2023-04-06T16:28:13.370Z,23.25
2023-04-06T16:30:59.835Z,44.45
2023-04-06T16:33:46.829Z,67.60
2023-04-06T16:36:35.687Z,24.65
2023-04-06T16:39:23.091Z,27.60
2023-04-06T16:42:10.153Z,22.95
2023-04-06T16:44:59.065Z,22.23
2023-04-06T16:47:45.355Z,26.33
2023-04-06T16:50:35.811Z,23.02
2023-04-06T16:53:27.838Z,25.67
2023-04-06T16:56:14.973Z,23.23
2023-04-06T16:59:02.411Z,22.90
2023-04-06T17:01:52.637Z,23.27
2023-04-06T17:04:44.420Z,26.20
2023-04-06T17:07:33.344Z,25.67
2023-04-06T17:10:28.903Z,25.83
2023-04-06T17:13:23.913Z,35.78
2023-04-06T17:16:11.345Z,29.55
2023-04-06T17:18:58.290Z,29.77
2023-04-06T17:21:47.907Z,24.67
2023-04-06T17:24:36.098Z,27.55
2023-04-06T17:27:26.530Z,25.73
2023-04-06T17:30:16.242Z,24.77
2023-04-06T17:33:03.910Z,26.45
2023-04-06T17:35:52.070Z,27.90
2023-04-06T17:38:43.188Z,24.13
2023-04-06T17:41:32.596Z,23.45
2023-04-06T17:48:48.850Z,28.15
2023-04-06T17:52:27.289Z,27.08
2023-04-06T17:55:25.527Z,26.73
2023-04-06T17:58:12.203Z,27.23
2023-04-06T18:00:59.180Z,27.83
2023-04-06T18:03:50.254Z,26.70
2023-04-06T18:06:43.365Z,27.92
2023-04-06T18:09:39.710Z,26.73
2023-04-06T18:12:35.245Z,35.13
2023-04-06T18:15:21.920Z,29.33
2023-04-06T18:18:08.798Z,30.88
2023-04-06T18:20:59.195Z,33.60
2023-04-06T18:23:46.033Z,36.42
2023-04-06T18:26:36.625Z,39.95
2023-04-06T18:29:25.268Z,34.05
2023-04-06T18:32:11.976Z,32.70
2023-04-06T18:34:58.987Z,35.85
2023-04-06T18:37:47.039Z,31.95
2023-04-06T18:40:39.121Z,38.67
2023-04-06T18:43:48.041Z,34.65
2023-04-06T18:46:36.320Z,37.20
2023-04-06T18:49:23.217Z,36.58
2023-04-06T18:52:15.960Z,37.70
2023-04-06T18:55:09.016Z,32.40
2023-04-06T18:57:57.536Z,31.13
2023-04-06T19:00:58.002Z,31.17
2023-04-06T19:03:52.639Z,34.23
2023-04-06T19:06:41.787Z,30.63
2023-04-06T19:13:34.520Z,32.28
2023-04-06T19:16:29.204Z,37.65
2023-04-06T19:19:18.047Z,34.42
2023-04-06T19:22:07.991Z,34.72
2023-04-06T19:24:56.210Z,36.55
2023-04-06T19:27:46.757Z,42.80
2023-04-06T19:30:48.195Z,33.42
2023-04-06T19:34:18.797Z,37.83
2023-04-06T19:37:10.137Z,36.45
2023-04-06T19:40:13.552Z,32.38
2023-04-06T19:43:01.670Z,35.80
2023-04-06T19:45:51.791Z,35.20
2023-04-06T19:51:34.421Z,34.53
2023-04-06T19:54:31.628Z,35.97
2023-04-06T19:57:29.846Z,39.03
2023-04-06T20:00:19.270Z,37.35
2023-04-06T20:03:07.462Z,38.33
2023-04-06T20:05:56.953Z,33.58
2023-04-06T20:08:44.719Z,40.72
2023-04-06T20:11:31.933Z,38.47
2023-04-06T20:14:19.187Z,36.25
2023-04-06T20:17:05.731Z,36.90
2023-04-06T20:19:54.101Z,40.53
2023-04-06T20:22:46.270Z,44.92
2023-04-06T20:25:34.098Z,41.85
2023-04-06T20:28:23.198Z,46.70
2023-04-06T20:31:16.675Z,48.90
2023-04-06T20:34:05.406Z,51.17
2023-04-06T20:36:53.630Z,54.67
2023-04-06T20:39:40.436Z,54.35
2023-04-06T20:42:26.636Z,56.88
2023-04-06T20:45:14.093Z,54.65
2023-04-06T20:48:07.931Z,59.65
2023-04-06T20:50:55.439Z,62.33
2023-04-06T20:53:43.261Z,66.47
2023-04-06T20:56:29.692Z,69.32
2023-04-06T20:59:16.451Z,76.93
2023-04-06T21:02:02.977Z,76.15
2023-04-06T21:04:49.446Z,81.68
2023-04-06T21:07:35.708Z,74.32
2023-04-06T21:10:24.072Z,84.07
2023-04-06T21:13:10.425Z,80.95
2023-04-06T21:15:57.136Z,80.22
2023-04-06T21:18:43.685Z,87.78
2023-04-06T21:21:29.915Z,75.90
2023-04-06T21:24:16.274Z,66.07
2023-04-06T21:27:04.705Z,59.13
2023-04-06T21:29:50.935Z,59.70
2023-04-06T21:32:37.616Z,50.47
2023-04-06T21:35:23.706Z,47.55
2023-04-06T21:38:10.884Z,45.28
2023-04-06T21:40:57.033Z,36.45
2023-04-06T21:43:44.830Z,38.10
2023-04-06T21:46:31.320Z,35.05
2023-04-06T21:49:17.620Z,33.72
2023-04-06T21:52:04.386Z,30.08
2023-04-06T21:54:50.628Z,34.25
2023-04-06T21:57:37.093Z,27.05
2023-04-06T22:00:24.802Z,30.98
2023-04-06T22:03:11.530Z,24.95
2023-04-06T22:05:57.740Z,24.58
2023-04-06T22:08:47.485Z,25.65
2023-04-06T22:11:33.740Z,18.92
2023-04-06T22:14:20.450Z,16.55
2023-04-06T22:17:08.209Z,22.27
2023-04-06T22:19:54.351Z,20.98
2023-04-06T22:22:40.552Z,25.50
2023-04-06T22:25:26.954Z,20.20
2023-04-06T22:28:13.285Z,22.35
2023-04-06T22:30:59.472Z,23.33
2023-04-06T22:33:47.121Z,19.63
2023-04-06T22:36:33.597Z,22.50
2023-04-06T22:39:19.899Z,22.48
2023-04-06T22:42:06.431Z,22.40
2023-04-06T22:44:52.845Z,15.63
2023-04-06T22:47:39.244Z,19.08
2023-04-06T22:50:27.060Z,19.25
2023-04-06T22:53:13.150Z,16.65
2023-04-06T22:55:59.756Z,24.27
2023-04-06T22:58:46.127Z,22.17
2023-04-06T23:01:32.367Z,15.30
2023-04-06T23:04:18.841Z,17.45
2023-04-06T23:07:07.400Z,14.77
2023-04-06T23:09:53.438Z,24.20
2023-04-06T23:12:39.799Z,11.85
2023-04-06T23:15:26.625Z,23.48
2023-04-06T23:18:12.821Z,17.02
2023-04-06T23:20:58.919Z,18.02
2023-04-06T23:23:46.722Z,18.10
2023-04-06T23:26:32.939Z,22.00
2023-04-06T23:29:19.065Z,23.88
2023-04-06T23:32:05.417Z,18.67
2023-04-06T23:34:51.753Z,19.48
2023-04-06T23:37:38.024Z,18.55
2023-04-06T23:40:25.859Z,17.23
2023-04-06T23:43:12.642Z,14.38
2023-04-06T23:45:58.704Z,24.90
2023-04-06T23:48:44.919Z,20.27
2023-04-06T23:51:31.790Z,17.60
2023-04-06T23:54:18.225Z,22.30
2023-04-06T23:57:05.820Z,16.35
2023-04-06T23:59:52.084Z,16.42
